Time;durP1;ratioP1;P1;durP2;ratioP2;P2;SDS_P1;SDS_P2;PMS_P1;PMS_P2;Temp;Humidity;BMP_temperature;BMP_pressure;BME280_temperature;BME280_humidity;BME280_pressure;Samples;Min_cycle;Max_cycle;Signal;HPM_P1;HPM_P2
2022/06/09 03:58:32;;;;;;;0.00;0.00;;;16.80;99.90;;;;;;1900485;23;21136;-91
2022/06/09 04:01:01;;;;;;;0.00;0.00;;;16.80;99.90;;;;;;4931547;29;20577;-87
2022/06/09 04:03:30;;;;;;;0.00;0.00;;;16.80;99.90;;;;;;4932645;29;20471;-89
2022/06/09 04:05:58;;;;;;;0.00;0.00;;;16.80;99.90;;;;;;4932243;29;20537;-89
2022/06/09 04:08:30;;;;;;;0.00;0.00;;;16.90;99.90;;;;;;4931095;29;20470;-87
2022/06/09 04:10:58;;;;;;;0.00;0.00;;;16.90;99.90;;;;;;4938141;29;20439;-89
2022/06/09 04:59:18;;;;;;;0.00;0.00;;;17.60;99.90;;;;;;4849891;26;20486;-85
2022/06/09 05:01:48;;;;;;;0.00;0.00;;;17.60;99.90;;;;;;4936646;29;20456;-88
2022/06/09 05:07:54;;;;;;;0.00;0.00;;;17.60;99.90;;;;;;4913926;29;20539;-88
2022/06/09 05:11:17;;;;;;;0.00;0.00;;;17.60;99.90;;;;;;4928795;29;20458;-87
2022/06/09 05:13:55;;;;;;;0.00;0.00;;;17.60;99.90;;;;;;4940692;29;20482;-86
2022/06/09 05:16:28;;;;;;;0.00;0.00;;;17.40;99.90;;;;;;4936956;29;20455;-87
2022/06/09 05:19:07;;;;;;;0.00;0.00;;;17.30;99.90;;;;;;4939047;29;21164;-87
2022/06/09 05:28:29;;;;;;;0.00;0.00;;;17.50;99.90;;;;;;4935955;29;20455;-88
2022/06/09 05:31:15;;;;;;;0.00;0.00;;;17.50;99.90;;;;;;4936373;29;20463;-87
2022/06/09 05:34:05;;;;;;;0.00;0.00;;;17.50;99.90;;;;;;4932369;29;20511;-85
2022/06/09 05:46:57;;;;;;;0.00;0.00;;;17.60;99.90;;;;;;4915283;29;20456;-90
2022/06/09 06:10:36;;;;;;;0.00;0.00;;;17.90;99.90;;;;;;4917830;29;20494;-94
2022/06/09 06:21:28;;;;;;;0.00;0.00;;;17.80;99.90;;;;;;4941780;29;20459;-91
2022/06/09 06:24:12;;;;;;;0.00;0.00;;;17.70;99.90;;;;;;4944900;29;20986;-92
2022/06/09 06:26:43;;;;;;;0.00;0.00;;;17.60;99.90;;;;;;4946895;28;20430;-91
2022/06/09 06:29:22;;;;;;;0.00;0.00;;;17.60;99.90;;;;;;5057595;23;20576;-91
2022/06/09 06:32:09;;;;;;;0.00;0.00;;;17.60;99.90;;;;;;4964942;29;20469;-92
2022/06/09 06:34:58;;;;;;;0.00;0.00;;;17.70;99.90;;;;;;4966503;28;20473;-92
2022/06/09 06:38:13;;;;;;;0.00;0.00;;;17.90;99.90;;;;;;4968810;28;20464;-93
2022/06/09 06:41:07;;;;;;;0.00;0.00;;;18.10;99.90;;;;;;4952184;28;20664;-91
2022/06/09 06:43:52;;;;;;;0.00;0.00;;;18.30;99.90;;;;;;4971667;28;20476;-91
2022/06/09 06:47:11;;;;;;;0.00;0.00;;;18.50;99.90;;;;;;4969396;28;20466;-92
2022/06/09 06:50:03;;;;;;;;;;;;;;;;;;;;;
2022/06/09 06:52:54;;;;;;;0.00;0.00;;;18.50;99.90;;;;;;4970013;28;20435;-93
2022/06/09 06:59:08;;;;;;;0.00;0.00;;;18.70;99.90;;;;;;4944540;28;20502;-93
2022/06/09 07:02:40;;;;;;;0.00;0.00;;;18.80;99.90;;;;;;4935832;28;20452;-94
2022/06/09 07:05:29;;;;;;;0.00;0.00;;;18.90;99.90;;;;;;4966168;28;20451;-92
2022/06/09 07:08:07;;;;;;;0.00;0.00;;;18.80;99.90;;;;;;4969390;28;20492;-93
2022/06/09 07:11:06;;;;;;;0.00;0.00;;;18.90;99.90;;;;;;4969760;28;20457;-91
2022/06/09 07:14:07;;;;;;;0.00;0.00;;;18.80;99.90;;;;;;4971854;28;20464;-91
2022/06/09 07:19:59;;;;;;;0.00;0.00;;;18.80;99.90;;;;;;4948160;23;20476;-92
2022/06/09 07:22:27;;;;;;;0.00;0.00;;;18.90;99.90;;;;;;4945149;28;20477;-87
2022/06/09 07:24:57;;;;;;;0.00;0.00;;;18.90;99.90;;;;;;4907925;29;20773;-91
2022/06/09 07:27:26;;;;;;;0.00;0.00;;;18.80;99.90;;;;;;4904438;29;20426;-91
2022/06/09 07:29:54;;;;;;;0.00;0.00;;;18.80;99.90;;;;;;4905508;29;20435;-91
2022/06/09 07:32:22;;;;;;;0.00;0.00;;;18.80;99.90;;;;;;4904941;29;20451;-92
2022/06/09 07:34:53;;;;;;;0.00;0.00;;;18.80;99.90;;;;;;4910424;29;20482;-92
2022/06/09 07:37:21;;;;;;;0.00;0.00;;;18.80;99.90;;;;;;4918335;29;20470;-92
2022/06/09 07:39:49;;;;;;;0.00;0.00;;;18.80;99.90;;;;;;4918719;29;20471;-93
2022/06/09 07:42:22;;;;;;;0.00;0.00;;;18.80;99.90;;;;;;4918786;29;20463;-93
2022/06/09 07:44:50;;;;;;;0.00;0.00;;;18.80;99.90;;;;;;4915948;29;20566;-91
2022/06/09 07:47:18;;;;;;;0.00;0.00;;;18.80;99.90;;;;;;4911267;29;20474;-91
2022/06/09 07:49:49;;;;;;;0.00;0.00;;;18.90;99.90;;;;;;4914494;29;20469;-92
2022/06/09 07:55:15;;;;;;;0.00;0.00;;;18.90;99.90;;;;;;4917481;29;20535;-94
2022/06/09 07:57:44;;;;;;;0.00;0.00;;;19.10;99.90;;;;;;4911852;29;20444;-92
2022/06/09 08:00:16;;;;;;;0.00;0.00;;;19.30;99.90;;;;;;4907480;29;20467;-93
2022/06/09 08:02:45;;;;;;;0.00;0.00;;;19.40;99.90;;;;;;4906215;29;20454;-91
2022/06/09 08:05:15;;;;;;;0.00;0.00;;;19.50;99.90;;;;;;4906428;29;20548;-91
2022/06/09 08:07:47;;;;;;;0.00;0.00;;;19.60;99.90;;;;;;4907616;29;20459;-92
2022/06/09 08:10:18;;;;;;;0.00;0.00;;;19.90;99.90;;;;;;4906161;29;20696;-91
2022/06/09 08:12:55;;;;;;;0.00;0.00;;;20.10;99.90;;;;;;4916865;29;20495;-88
2022/06/09 08:15:32;;;;;;;0.00;0.00;;;20.30;99.90;;;;;;4920761;29;20490;-91
2022/06/09 08:18:03;;;;;;;0.00;0.00;;;20.30;99.90;;;;;;4917115;29;20523;-91
2022/06/09 08:20:37;;;;;;;0.00;0.00;;;20.50;99.90;;;;;;4913408;29;20447;-89
2022/06/09 08:23:29;;;;;;;0.00;0.00;;;20.70;99.90;;;;;;4907548;29;21072;-92
2022/06/09 08:26:02;;;;;;;0.00;0.00;;;20.70;99.90;;;;;;4905260;29;20522;-91
2022/06/09 08:28:46;;;;;;;0.00;0.00;;;20.40;99.90;;;;;;4906418;29;20466;-92
2022/06/09 08:31:15;;;;;;;0.00;0.00;;;20.10;99.90;;;;;;4905283;29;20980;-91
2022/06/09 08:33:44;;;;;;;0.00;0.00;;;20.00;99.90;;;;;;4903503;29;20479;-90
2022/06/09 08:36:13;;;;;;;0.00;0.00;;;20.10;99.90;;;;;;4904808;29;20956;-89
2022/06/09 08:38:43;;;;;;;0.00;0.00;;;20.20;99.90;;;;;;4902200;29;20568;-90
2022/06/09 08:41:29;;;;;;;0.00;0.00;;;20.40;99.90;;;;;;4902993;29;20451;-91
2022/06/09 08:44:17;;;;;;;0.00;0.00;;;20.40;99.90;;;;;;4907598;29;20498;-92
2022/06/09 08:46:54;;;;;;;0.00;0.00;;;20.40;99.90;;;;;;4906208;29;20455;-95
2022/06/09 08:49:49;;;;;;;0.00;0.00;;;20.30;99.90;;;;;;4906389;29;20455;-92
2022/06/09 08:52:27;;;;;;;0.00;0.00;;;20.40;99.90;;;;;;4908925;29;20479;-92
2022/06/09 08:54:59;;;;;;;0.00;0.00;;;20.50;99.90;;;;;;4910587;29;20586;-93
2022/06/09 08:57:33;;;;;;;0.00;0.00;;;20.40;99.90;;;;;;4913016;29;20435;-91
2022/06/09 09:00:06;;;;;;;0.00;0.00;;;20.30;99.90;;;;;;4908122;29;20431;-92
2022/06/09 09:02:47;;;;;;;0.00;0.00;;;20.10;99.90;;;;;;4910308;29;20447;-92
2022/06/09 09:08:49;;;;;;;0.00;0.00;;;19.90;99.90;;;;;;4917251;29;20457;-94
2022/06/09 09:12:12;;;;;;;0.00;0.00;;;19.90;99.90;;;;;;4909663;29;20541;-91
2022/06/09 09:18:35;;;;;;;0.00;0.00;;;20.20;99.90;;;;;;4968177;29;20448;-93
2022/06/09 09:21:21;;;;;;;0.00;0.00;;;20.40;99.90;;;;;;4967601;28;20455;-92
2022/06/09 09:24:34;;;;;;;0.00;0.00;;;20.40;99.90;;;;;;4969950;28;20750;-91
2022/06/09 09:27:20;;;;;;;0.00;0.00;;;20.40;99.90;;;;;;4953739;28;21011;-92
2022/06/09 09:30:04;;;;;;;0.00;0.00;;;20.60;99.90;;;;;;4968483;28;20527;-94
2022/06/09 09:32:41;;;;;;;0.00;0.00;;;20.70;99.90;;;;;;4969388;29;20499;-91
2022/06/09 09:35:24;;;;;;;0.00;0.00;;;20.90;99.90;;;;;;4967195;29;20531;-92
2022/06/09 09:38:00;;;;;;;0.00;0.00;;;21.00;99.90;;;;;;4970704;28;20514;-91
2022/06/09 09:44:57;;;;;;;0.00;0.00;;;21.00;99.90;;;;;;5040411;23;20778;-94
2022/06/09 09:47:59;;;;;;;0.00;0.00;;;20.90;99.90;;;;;;4933639;28;20454;-95
2022/06/09 13:12:54;;;;;;;0.00;0.00;;;22.20;99.90;;;;;;4951217;29;20478;-92
2022/06/09 13:15:53;;;;;;;;;;;;;;;;;;;;;
2022/06/09 13:19:17;;;;;;;;;;;;;;;;;;;;;
2022/06/09 13:22:07;;;;;;;;;;;;;;;;;;;;;
2022/06/09 13:24:42;;;;;;;0.00;0.00;;;22.30;99.90;;;;;;4935599;29;20486;-89
2022/06/09 13:30:47;;;;;;;0.00;0.00;;;22.30;99.90;;;;;;4903416;29;20481;-88
2022/06/09 13:44:49;;;;;;;0.00;0.00;;;22.00;99.90;;;;;;4734464;30;20504;-89
2022/06/09 13:51:43;;;;;;;0.00;0.00;;;22.20;99.90;;;;;;4660904;30;20466;-91
2022/06/09 19:01:48;;;;;;;0.00;0.00;;;16.80;99.90;;;;;;4937229;29;20471;-95
2022/06/09 19:07:53;;;;;;;0.00;0.00;;;16.80;99.90;;;;;;4880089;29;20449;-93
2022/06/09 19:10:33;;;;;;;0.00;0.00;;;16.90;99.90;;;;;;4881889;29;20522;-93
2022/06/09 19:13:27;;;;;;;0.00;0.00;;;16.90;99.90;;;;;;4878019;29;20454;-93
2022/06/09 19:16:32;;;;;;;0.00;0.00;;;16.90;99.90;;;;;;4880629;29;20521;-93
2022/06/09 19:19:29;;;;;;;0.00;0.00;;;16.90;99.90;;;;;;4847853;29;20449;-95
2022/06/09 19:29:45;;;;;;;0.00;0.00;;;16.80;99.90;;;;;;4840729;29;20459;-93
2022/06/09 19:32:21;;;;;;;0.00;0.00;;;16.80;99.90;;;;;;4841975;29;20439;-96
2022/06/09 19:34:59;;;;;;;0.00;0.00;;;16.70;99.90;;;;;;4875408;29;20474;-92
2022/06/09 19:37:31;;;;;;;0.00;0.00;;;16.70;99.90;;;;;;4935650;29;20486;-94
2022/06/09 19:40:13;;;;;;;0.00;0.00;;;16.70;99.90;;;;;;4937711;29;20514;-94
2022/06/09 19:43:03;;;;;;;0.00;0.00;;;16.60;99.90;;;;;;4937034;29;20443;-92
2022/06/09 19:45:38;;;;;;;0.00;0.00;;;16.60;99.90;;;;;;4937311;29;20446;-95
2022/06/09 19:48:25;;;;;;;0.00;0.00;;;16.70;99.90;;;;;;4937155;29;20447;-94
2022/06/09 19:51:26;;;;;;;0.00;0.00;;;16.70;99.90;;;;;;4930744;29;20515;-93
2022/06/09 19:53:57;;;;;;;0.00;0.00;;;16.70;99.90;;;;;;4935490;29;20468;-95
2022/06/09 19:56:47;;;;;;;0.00;0.00;;;16.70;99.90;;;;;;4931263;29;20459;-95
2022/06/09 20:07:40;;;;;;;0.00;0.00;;;16.80;99.90;;;;;;4973035;28;20439;-91
2022/06/09 20:12:52;;;;;;;0.00;0.00;;;16.80;99.90;;;;;;5114805;23;20508;-90
2022/06/09 20:15:25;;;;;;;0.00;0.00;;;16.80;99.90;;;;;;4959589;28;20449;-91
2022/06/09 20:17:57;;;;;;;0.00;0.00;;;16.80;99.90;;;;;;4958323;28;20508;-90
2022/06/09 20:20:35;;;;;;;0.00;0.00;;;16.80;99.90;;;;;;4956126;28;20406;-92
2022/06/09 20:23:08;;;;;;;0.00;0.00;;;16.80;99.90;;;;;;4955638;28;20501;-93
2022/06/09 20:33:03;;;;;;;0.00;0.00;;;16.50;99.90;;;;;;4881716;29;20431;-89
2022/06/09 20:35:46;;;;;;;0.00;0.00;;;16.40;99.90;;;;;;4908183;29;20557;-89
2022/06/09 20:38:22;;;;;;;0.00;0.00;;;16.30;99.90;;;;;;4939979;29;20491;-89
2022/06/09 20:41:04;;;;;;;0.00;0.00;;;16.30;99.90;;;;;;4938949;29;20446;-90
2022/06/09 20:43:39;;;;;;;0.00;0.00;;;16.30;99.90;;;;;;4936678;29;20481;-92
2022/06/09 20:46:23;;;;;;;0.00;0.00;;;16.30;99.90;;;;;;4940119;29;20477;-88
2022/06/09 20:48:56;;;;;;;0.00;0.00;;;16.20;99.90;;;;;;4937886;29;20520;-87
2022/06/09 20:51:56;;;;;;;0.00;0.00;;;16.20;99.90;;;;;;4938490;29;20480;-90
2022/06/09 20:54:57;;;;;;;0.00;0.00;;;16.30;99.90;;;;;;4935762;29;21128;-90
2022/06/09 20:57:30;;;;;;;0.00;0.00;;;16.30;99.90;;;;;;4937782;29;20485;-90
2022/06/09 21:03:19;;;;;;;0.00;0.00;;;16.40;99.90;;;;;;4939653;29;20454;-91
2022/06/09 21:06:24;;;;;;;0.00;0.00;;;16.40;99.90;;;;;;4945684;29;20468;-90
2022/06/09 21:57:13;;;;;;;;;;;;;;;;;;;;;
